Sointula, Canada
Current Conditions -  °F | °C
As of 5:00 AM on Tuesday 21 Oct 2014 (Local Time) from CYZT Reporting Station
Broken Clouds Broken Clouds  
Wind Chill: 52°   Ceiling: 9000
Heat Index: 52°   Visibility: 15mi
Dew Point: 50°   Wind: 12mph
Humidity: 94%   Direction: 130°SE
Pressure: 29.59"   Gusts: NA
Location:  50.63°N, 127.02°W
Report Text: CYZT 211200Z 13010KT 15SM SCT050 BKN090 BKN160 11/10 A2959 RMK SC3AC3AC1 SLP019
Loading
Personal Weather Stations






























Interactive Weather Map
Tropical Storm Tracking
New forecast layout! Learn more

10-Day Weather Forecast

Advertisements
Track Severe Weather on mobile